Time;durP1;ratioP1;P1;durP2;ratioP2;P2;SDS_P1;SDS_P2;PMS_P1;PMS_P2;Temp;Humidity;BMP_temperature;BMP_pressure;BME280_temperature;BME280_humidity;BME280_pressure;Samples;Min_cycle;Max_cycle;Signal;HPM_P1;HPM_P2
2022/06/27 00:01:36;;;;;;;5.80;3.55;;;18.00;99.90;;;;;;5029149;28;20029;-71
2022/06/27 00:04:03;;;;;;;5.55;4.00;;;18.10;99.90;;;;;;5030752;28;20394;-71
2022/06/27 00:06:28;;;;;;;5.18;3.28;;;18.30;99.90;;;;;;5029931;28;20053;-71
2022/06/27 00:08:54;;;;;;;3.58;3.00;;;18.10;99.90;;;;;;5030759;28;20541;-71
2022/06/27 00:11:20;;;;;;;4.22;3.70;;;18.10;99.90;;;;;;5030748;28;20018;-71
2022/06/27 00:13:46;;;;;;;4.53;3.28;;;;;;;;;;5029302;28;20479;-71
2022/06/27 00:16:13;;;;;;;5.05;3.50;;;18.10;99.90;;;;;;5030178;28;20070;-71
2022/06/27 00:18:38;;;;;;;4.30;2.97;;;18.10;99.90;;;;;;5030705;28;20041;-71
2022/06/27 00:21:04;;;;;;;3.75;3.00;;;18.10;99.90;;;;;;5030329;28;20047;-70
2022/06/27 00:23:29;;;;;;;3.35;3.00;;;18.20;99.90;;;;;;5030757;28;20455;-71
2022/06/27 00:25:55;;;;;;;3.28;2.55;;;18.30;99.90;;;;;;5030393;28;20033;-71
2022/06/27 00:28:21;;;;;;;4.78;3.00;;;18.10;99.90;;;;;;5030542;28;20057;-71
2022/06/27 00:30:46;;;;;;;6.60;3.40;;;18.20;99.90;;;;;;5029935;28;20033;-71
2022/06/27 00:33:12;;;;;;;2.95;2.72;;;18.20;99.90;;;;;;5030407;28;20029;-71
2022/06/27 00:35:38;;;;;;;8.15;3.35;;;18.20;99.90;;;;;;5030210;28;20068;-71
2022/06/27 00:38:04;;;;;;;3.33;2.60;;;18.20;99.90;;;;;;5030068;28;20116;-71
2022/06/27 00:40:29;;;;;;;3.05;2.42;;;18.30;99.90;;;;;;5030493;28;20025;-71
2022/06/27 00:42:55;;;;;;;3.83;3.30;;;18.10;99.90;;;;;;5029553;28;20119;-71
2022/06/27 00:45:20;;;;;;;5.15;2.63;;;18.20;99.90;;;;;;5028012;28;20060;-71
2022/06/27 00:47:46;;;;;;;3.85;3.10;;;18.20;99.90;;;;;;5027768;28;20017;-71
2022/06/27 00:50:11;;;;;;;4.20;2.97;;;18.10;99.90;;;;;;5028090;28;20054;-72
2022/06/27 00:52:37;;;;;;;4.03;2.88;;;18.20;99.90;;;;;;5028065;28;20033;-71
2022/06/27 00:55:05;;;;;;;5.55;3.10;;;18.10;99.90;;;;;;5027963;28;20162;-71
2022/06/27 00:57:31;;;;;;;4.72;2.83;;;18.20;99.90;;;;;;5028501;28;20065;-71
2022/06/27 00:59:56;;;;;;;5.00;3.15;;;18.20;99.90;;;;;;5028580;28;20032;-71
2022/06/27 01:02:22;;;;;;;5.00;3.33;;;18.00;99.90;;;;;;5029826;28;20017;-71
2022/06/27 01:04:48;;;;;;;4.95;2.97;;;18.10;99.90;;;;;;5029806;28;20104;-71
2022/06/27 01:07:13;;;;;;;5.43;3.60;;;18.10;99.90;;;;;;5029453;28;20056;-71
2022/06/27 01:09:40;;;;;;;4.45;4.05;;;18.10;99.90;;;;;;5029633;28;20025;-71
2022/06/27 01:12:07;;;;;;;5.05;3.17;;;18.10;99.90;;;;;;5029565;28;20517;-71
2022/06/27 01:14:32;;;;;;;5.97;3.80;;;18.10;99.90;;;;;;5029378;28;20524;-71
2022/06/27 01:16:58;;;;;;;6.80;3.80;;;18.10;99.90;;;;;;5029959;28;20025;-71
2022/06/27 01:19:24;;;;;;;6.47;4.68;;;18.00;99.90;;;;;;5029536;28;20029;-71
2022/06/27 01:21:53;;;;;;;5.95;3.70;;;18.10;99.90;;;;;;5029702;28;20032;-71
2022/06/27 01:24:21;;;;;;;4.60;4.20;;;18.90;99.90;;;;;;5029451;28;20529;-71
2022/06/27 01:26:47;;;;;;;4.38;3.97;;;18.10;99.90;;;;;;5029682;28;20056;-71
2022/06/27 01:29:13;;;;;;;3.70;3.22;;;18.00;99.90;;;;;;5028987;28;20025;-71
2022/06/27 01:31:39;;;;;;;11.18;4.15;;;18.90;99.90;;;;;;5029453;28;20068;-71
2022/06/27 01:34:06;;;;;;;6.70;4.45;;;17.90;99.90;;;;;;5029397;28;20040;-71
2022/06/27 01:36:41;;;;;;;4.25;3.55;;;18.00;99.90;;;;;;5029851;28;20021;-71
2022/06/27 01:39:09;;;;;;;5.93;4.20;;;18.10;99.90;;;;;;5029544;28;20482;-71
2022/06/27 01:41:35;;;;;;;3.97;3.67;;;18.00;99.90;;;;;;5029642;28;20641;-71
2022/06/27 01:44:01;;;;;;;6.50;4.75;;;17.90;99.90;;;;;;5029129;28;20061;-71
2022/06/27 01:46:43;;;;;;;5.25;4.70;;;17.90;99.90;;;;;;5029375;28;20022;-71
2022/06/27 01:49:09;;;;;;;6.60;4.53;;;18.00;99.90;;;;;;5029469;28;20033;-71
2022/06/27 01:51:35;;;;;;;8.38;4.78;;;18.00;99.90;;;;;;5029297;28;20025;-71
2022/06/27 01:54:01;;;;;;;5.35;4.05;;;17.90;99.90;;;;;;5029483;28;20120;-71
2022/06/27 01:56:27;;;;;;;6.30;4.10;;;19.30;99.90;;;;;;5029532;28;20069;-71
2022/06/27 01:58:57;;;;;;;4.22;3.83;;;17.90;99.90;;;;;;5028761;28;20037;-71
2022/06/27 02:01:24;;;;;;;6.70;3.92;;;17.90;99.90;;;;;;5029414;28;20029;-71
2022/06/27 02:03:50;;;;;;;5.95;4.07;;;17.90;99.90;;;;;;5029248;28;20017;-71
2022/06/27 02:06:15;;;;;;;4.25;3.85;;;17.90;99.90;;;;;;5029153;28;20483;-71
2022/06/27 02:08:46;;;;;;;4.68;4.15;;;17.90;99.90;;;;;;5029068;28;20037;-71
2022/06/27 02:11:15;;;;;;;5.78;3.60;;;18.00;99.90;;;;;;5029292;28;20029;-71
2022/06/27 02:13:42;;;;;;;4.35;3.35;;;18.00;99.90;;;;;;5028650;28;20038;-71
2022/06/27 02:16:09;;;;;;;5.90;3.40;;;18.00;99.90;;;;;;5029401;28;20041;-71
2022/06/27 02:18:36;;;;;;;4.53;2.95;;;17.90;99.90;;;;;;5029105;28;20036;-71
2022/06/27 02:21:02;;;;;;;5.75;3.25;;;17.90;99.90;;;;;;5029131;28;20025;-71
2022/06/27 02:23:28;;;;;;;5.80;3.10;;;17.90;99.90;;;;;;5029616;28;20113;-70
2022/06/27 02:25:55;;;;;;;5.43;3.03;;;18.50;99.90;;;;;;5028939;28;20041;-71
2022/06/27 02:28:22;;;;;;;6.10;3.80;;;18.00;99.90;;;;;;5028794;28;20112;-71
2022/06/27 02:30:48;;;;;;;4.22;3.83;;;17.90;99.90;;;;;;5031496;28;20080;-71
2022/06/27 02:33:13;;;;;;;6.28;3.03;;;17.90;99.90;;;;;;5032738;28;20462;-71
2022/06/27 02:35:40;;;;;;;3.53;3.03;;;17.90;99.90;;;;;;5032662;28;20100;-71
2022/06/27 02:38:09;;;;;;;4.00;3.00;;;17.80;99.90;;;;;;5032250;28;20056;-71
2022/06/27 02:40:37;;;;;;;4.10;3.30;;;17.80;99.90;;;;;;5030954;28;20029;-71
2022/06/27 02:43:03;;;;;;;10.43;4.20;;;17.80;99.90;;;;;;5031819;28;20036;-71
2022/06/27 02:45:29;;;;;;;4.90;3.17;;;17.70;99.90;;;;;;5032776;28;20017;-71
2022/06/27 02:47:57;;;;;;;6.05;3.40;;;17.80;99.90;;;;;;5032258;28;20490;-71
2022/06/27 02:50:26;;;;;;;7.85;4.57;;;17.80;99.90;;;;;;5032650;28;20013;-71
2022/06/27 02:52:55;;;;;;;3.97;3.60;;;17.70;99.90;;;;;;5032137;28;20144;-71
2022/06/27 02:55:33;;;;;;;7.18;3.55;;;17.80;99.90;;;;;;5032230;28;20064;-71
2022/06/27 02:58:00;;;;;;;4.78;3.38;;;17.80;99.90;;;;;;5031987;28;20057;-71
2022/06/27 03:00:32;;;;;;;4.18;2.67;;;17.70;99.90;;;;;;5032108;28;20018;-71
2022/06/27 03:02:59;;;;;;;4.30;3.13;;;17.80;99.90;;;;;;5032230;28;20022;-71
2022/06/27 03:05:24;;;;;;;5.72;2.95;;;17.60;99.90;;;;;;5032412;28;20436;-71
2022/06/27 03:07:50;;;;;;;4.25;3.40;;;;;;;;;;5031888;28;20088;-71
2022/06/27 03:10:17;;;;;;;5.80;3.50;;;17.70;99.90;;;;;;5030842;28;20459;-71
2022/06/27 03:12:42;;;;;;;8.23;3.75;;;18.10;99.90;;;;;;5030560;28;20104;-71
2022/06/27 03:15:08;;;;;;;3.92;3.05;;;17.70;99.90;;;;;;5031730;28;20461;-72
2022/06/27 03:17:34;;;;;;;5.78;3.70;;;17.70;99.90;;;;;;5031363;28;20040;-71
2022/06/27 03:20:00;;;;;;;5.38;3.60;;;17.70;99.90;;;;;;5031535;28;20033;-68
2022/06/27 03:22:25;;;;;;;5.38;3.67;;;17.60;99.90;;;;;;5031692;28;20059;-68
2022/06/27 03:24:51;;;;;;;6.63;4.20;;;17.60;99.90;;;;;;5030598;28;20037;-68
2022/06/27 03:27:16;;;;;;;4.25;3.67;;;17.70;99.90;;;;;;5030981;28;20040;-68
2022/06/27 03:29:42;;;;;;;5.68;3.30;;;18.50;99.90;;;;;;5031601;28;20029;-68
2022/06/27 03:32:08;;;;;;;5.28;3.88;;;18.20;99.90;;;;;;5031331;28;20026;-68
2022/06/27 03:34:33;;;;;;;3.78;3.42;;;17.50;99.90;;;;;;5031192;28;20033;-68
2022/06/27 03:37:00;;;;;;;3.90;3.03;;;17.60;99.90;;;;;;5031156;28;20517;-68
2022/06/27 03:39:25;;;;;;;4.25;3.78;;;17.50;99.90;;;;;;5031111;28;20029;-68
2022/06/27 03:41:51;;;;;;;5.90;3.63;;;17.90;99.90;;;;;;5031159;28;20029;-68
2022/06/27 03:44:17;;;;;;;6.55;4.53;;;17.60;99.90;;;;;;5031010;28;20479;-70
2022/06/27 03:46:43;;;;;;;5.22;3.55;;;17.60;99.90;;;;;;5031332;28;20112;-69
2022/06/27 03:51:53;;;;;;;5.10;4.22;;;18.90;99.90;;;;;;5031490;28;20099;-69
2022/06/27 03:54:19;;;;;;;7.13;4.20;;;18.80;99.90;;;;;;5030637;28;20053;-69
2022/06/27 03:56:45;;;;;;;4.85;4.35;;;17.40;99.90;;;;;;5030786;28;20033;-69
2022/06/27 03:59:10;;;;;;;5.35;4.85;;;17.40;99.90;;;;;;5029400;28;20046;-69
2022/06/27 04:01:36;;;;;;;5.63;4.50;;;17.30;99.90;;;;;;5031061;28;20056;-68
2022/06/27 04:04:02;;;;;;;7.13;4.40;;;17.40;99.90;;;;;;5030511;28;20082;-69
2022/06/27 04:06:28;;;;;;;4.15;3.75;;;17.40;99.90;;;;;;5030790;28;20065;-70
2022/06/27 04:08:54;;;;;;;4.75;4.22;;;17.30;99.90;;;;;;5030105;28;20026;-69
2022/06/27 04:11:19;;;;;;;5.93;4.43;;;17.30;99.90;;;;;;5029771;28;20021;-70
2022/06/27 04:13:45;;;;;;;5.65;4.15;;;17.30;99.90;;;;;;5030536;28;20044;-70
2022/06/27 04:16:10;;;;;;;5.22;4.43;;;17.30;99.90;;;;;;5030245;28;20041;-70
2022/06/27 04:18:36;;;;;;;5.82;4.25;;;17.50;99.90;;;;;;5030487;28;20041;-69
2022/06/27 04:21:01;;;;;;;5.28;4.38;;;17.30;99.90;;;;;;5029964;28;20028;-70
2022/06/27 04:23:27;;;;;;;6.50;4.82;;;17.40;99.90;;;;;;5030332;28;20025;-69
2022/06/27 04:25:53;;;;;;;7.47;5.15;;;17.50;99.90;;;;;;5029946;28;20083;-69
2022/06/27 04:28:18;;;;;;;7.30;4.55;;;17.50;99.90;;;;;;5030783;28;20474;-70
2022/06/27 04:30:44;;;;;;;5.78;4.47;;;17.50;99.90;;;;;;5030410;28;20075;-69
2022/06/27 04:33:11;;;;;;;4.95;4.45;;;18.80;99.90;;;;;;5030247;28;20025;-70
2022/06/27 04:35:39;;;;;;;6.40;5.00;;;17.70;99.90;;;;;;5030612;28;20425;-69
2022/06/27 04:38:05;;;;;;;6.50;5.07;;;17.80;99.90;;;;;;5029440;28;20029;-70
2022/06/27 04:40:31;;;;;;;5.82;5.05;;;17.70;99.90;;;;;;5030529;28;20045;-70
2022/06/27 04:42:56;;;;;;;6.13;5.53;;;17.70;99.90;;;;;;5029988;28;20026;-70
2022/06/27 04:45:23;;;;;;;6.93;5.68;;;;;;;;;;5030167;28;20463;-70
2022/06/27 04:47:49;;;;;;;7.82;5.40;;;17.90;99.90;;;;;;5030139;28;20037;-69
2022/06/27 04:50:18;;;;;;;5.57;5.07;;;18.10;99.90;;;;;;5030143;28;20053;-69
2022/06/27 04:52:44;;;;;;;7.63;6.18;;;18.00;99.90;;;;;;5027887;28;20386;-70
2022/06/27 04:55:12;;;;;;;6.82;5.03;;;18.10;99.90;;;;;;5029835;28;20140;-70
2022/06/27 04:57:40;;;;;;;5.07;4.57;;;18.10;99.90;;;;;;5029088;28;20086;-69
2022/06/27 05:00:09;;;;;;;6.88;5.57;;;18.40;99.90;;;;;;5024400;28;20025;-69
2022/06/27 05:02:35;;;;;;;7.88;5.53;;;18.30;99.90;;;;;;5029141;28;20060;-70
2022/06/27 05:05:02;;;;;;;7.95;6.20;;;18.30;99.90;;;;;;5025032;28;20030;-69
2022/06/27 05:07:28;;;;;;;6.15;5.50;;;18.20;99.90;;;;;;5028638;28;20045;-71
2022/06/27 05:09:54;;;;;;;7.13;6.45;;;18.30;99.90;;;;;;5029526;28;20040;-69
2022/06/27 05:12:20;;;;;;;8.35;6.45;;;18.30;99.90;;;;;;5029527;28;20029;-69
2022/06/27 05:14:46;;;;;;;6.63;5.97;;;18.40;99.90;;;;;;5029719;28;20045;-70
2022/06/27 05:17:12;;;;;;;7.40;6.72;;;19.10;99.90;;;;;;5029774;28;20045;-69
2022/06/27 05:19:37;;;;;;;9.95;7.22;;;18.50;99.90;;;;;;5029684;28;20037;-69
2022/06/27 05:22:03;;;;;;;9.30;6.63;;;18.50;99.90;;;;;;5029391;28;20025;-69
2022/06/27 05:24:29;;;;;;;8.40;7.35;;;18.50;99.90;;;;;;5029891;28;20025;-69
2022/06/27 05:26:55;;;;;;;7.05;6.45;;;18.50;99.90;;;;;;5029705;28;20463;-69
2022/06/27 05:29:21;;;;;;;7.70;6.95;;;18.50;99.90;;;;;;5029262;28;20033;-69
2022/06/27 05:31:47;;;;;;;11.15;7.35;;;18.50;99.90;;;;;;5029680;28;20094;-69
2022/06/27 05:34:13;;;;;;;7.35;6.47;;;18.50;99.90;;;;;;5029585;28;20482;-69
2022/06/27 05:36:38;;;;;;;11.15;7.57;;;18.50;99.90;;;;;;5029087;28;20467;-69
2022/06/27 05:39:05;;;;;;;10.25;7.65;;;18.40;99.90;;;;;;5029893;28;20095;-69
2022/06/27 05:41:31;;;;;;;7.70;7.00;;;18.20;99.90;;;;;;5029590;28;20125;-69
2022/06/27 05:43:57;;;;;;;11.05;7.35;;;18.30;99.90;;;;;;5029145;28;20139;-69
2022/06/27 05:46:23;;;;;;;12.23;7.75;;;18.40;99.90;;;;;;5029198;28;20029;-69
2022/06/27 05:48:50;;;;;;;8.00;7.20;;;18.30;99.90;;;;;;5029598;28;20026;-69
2022/06/27 05:51:15;;;;;;;9.70;8.25;;;18.90;99.90;;;;;;5027752;28;20475;-69
2022/06/27 05:53:43;;;;;;;9.48;8.57;;;18.40;99.90;;;;;;5029299;28;20037;-69
2022/06/27 05:56:09;;;;;;;10.18;8.20;;;18.30;99.90;;;;;;5029444;28;20163;-69
2022/06/27 05:58:35;;;;;;;9.93;8.90;;;18.50;99.90;;;;;;5029041;28;20037;-69
2022/06/27 06:01:01;;;;;;;10.20;8.30;;;18.40;99.90;;;;;;5029124;28;20455;-69
2022/06/27 06:03:27;;;;;;;10.00;8.73;;;18.40;99.90;;;;;;5029345;28;20029;-69
2022/06/27 06:05:54;;;;;;;9.48;8.52;;;18.60;99.90;;;;;;5031594;28;20382;-69
2022/06/27 06:08:21;;;;;;;10.25;8.90;;;18.50;99.90;;;;;;5033205;28;20076;-69
2022/06/27 06:10:47;;;;;;;9.40;8.48;;;18.60;99.90;;;;;;5032986;28;20100;-69
2022/06/27 06:13:13;;;;;;;8.93;7.90;;;19.90;99.90;;;;;;5033050;28;20392;-69
2022/06/27 06:15:40;;;;;;;8.88;8.00;;;18.90;99.90;;;;;;5032665;28;20021;-69
2022/06/27 06:18:07;;;;;;;13.05;9.10;;;19.00;99.90;;;;;;5032997;28;20144;-69
2022/06/27 06:20:33;;;;;;;13.38;8.90;;;19.10;99.90;;;;;;5032603;28;20025;-69
2022/06/27 06:22:59;;;;;;;9.95;8.38;;;19.10;99.90;;;;;;5032867;28;20064;-69
2022/06/27 06:25:26;;;;;;;11.27;8.90;;;19.20;99.90;;;;;;5032942;28;20490;-69
2022/06/27 06:27:51;;;;;;;9.05;8.05;;;19.20;99.90;;;;;;5032603;28;20458;-69
2022/06/27 06:30:19;;;;;;;10.20;8.13;;;19.20;99.90;;;;;;5031315;28;20029;-69
2022/06/27 06:32:46;;;;;;;9.23;8.32;;;19.20;99.90;;;;;;5032793;28;20026;-69
2022/06/27 06:35:12;;;;;;;8.70;7.80;;;19.10;99.90;;;;;;5032232;28;20139;-69
2022/06/27 06:37:40;;;;;;;8.50;7.63;;;19.10;99.90;;;;;;5032227;28;20505;-69
2022/06/27 06:40:06;;;;;;;11.63;7.93;;;19.00;99.90;;;;;;5032342;28;20025;-69
2022/06/27 06:42:32;;;;;;;8.20;7.30;;;19.00;99.90;;;;;;5032721;28;20118;-69
2022/06/27 06:44:58;;;;;;;10.95;9.48;;;19.00;99.90;;;;;;5032181;28;20112;-69
2022/06/27 06:47:26;;;;;;;10.10;9.10;;;19.00;99.90;;;;;;5032418;28;20032;-69
2022/06/27 06:49:51;;;;;;;11.70;8.90;;;18.90;99.90;;;;;;5032211;28;20041;-70
2022/06/27 06:52:18;;;;;;;10.45;8.70;;;18.90;99.90;;;;;;5032533;28;20053;-69
2022/06/27 06:54:45;;;;;;;8.18;7.47;;;19.00;99.90;;;;;;5031738;28;20052;-69
2022/06/27 06:57:11;;;;;;;9.48;8.57;;;19.00;99.90;;;;;;5016536;28;20025;-69
2022/06/27 06:59:37;;;;;;;12.50;8.02;;;18.90;99.90;;;;;;5026515;28;20029;-69
2022/06/27 07:02:04;;;;;;;8.43;7.63;;;18.90;99.90;;;;;;5030107;28;20025;-70
2022/06/27 07:04:29;;;;;;;10.98;8.57;;;18.90;99.90;;;;;;5032172;28;20083;-70
2022/06/27 07:06:56;;;;;;;10.77;9.68;;;18.90;99.90;;;;;;5031598;28;20081;-69
2022/06/27 07:09:21;;;;;;;12.30;10.18;;;19.00;99.90;;;;;;5031813;28;20037;-69
2022/06/27 07:11:47;;;;;;;10.85;8.98;;;19.00;99.90;;;;;;5031554;28;20025;-69
2022/06/27 07:14:14;;;;;;;12.75;9.00;;;19.10;99.90;;;;;;5031710;28;20478;-69
2022/06/27 07:16:42;;;;;;;9.68;8.68;;;19.00;99.90;;;;;;5031005;28;20387;-69
2022/06/27 07:19:08;;;;;;;10.40;9.40;;;19.00;99.90;;;;;;5031741;28;20033;-69
2022/06/27 07:21:35;;;;;;;11.30;10.20;;;19.00;99.90;;;;;;5031774;28;20026;-69
2022/06/27 07:24:01;;;;;;;12.63;10.82;;;19.00;99.90;;;;;;5030075;28;20036;-69
2022/06/27 07:26:29;;;;;;;11.15;10.05;;;19.50;99.90;;;;;;5031901;28;20048;-69
2022/06/27 07:28:56;;;;;;;13.43;9.50;;;19.40;99.90;;;;;;5031254;28;20108;-69
2022/06/27 07:31:22;;;;;;;11.07;8.65;;;;;;;;;;5031122;28;20048;-69
2022/06/27 07:33:51;;;;;;;15.25;10.60;;;19.10;99.90;;;;;;5031085;28;20029;-69
2022/06/27 07:36:18;;;;;;;13.32;10.73;;;19.20;99.90;;;;;;5031507;28;20033;-68
2022/06/27 07:38:49;;;;;;;9.00;8.05;;;20.70;99.90;;;;;;5030900;28;20037;-68
2022/06/27 07:41:19;;;;;;;16.65;9.90;;;19.30;99.90;;;;;;5031169;28;20117;-68
2022/06/27 07:43:46;;;;;;;10.60;9.60;;;19.40;99.90;;;;;;5030933;28;20098;-68
2022/06/27 07:46:12;;;;;;;11.55;9.48;;;19.30;99.90;;;;;;5030780;28;20032;-68
2022/06/27 07:48:38;;;;;;;13.63;10.55;;;19.40;99.90;;;;;;5031169;28;20091;-69
2022/06/27 07:51:04;;;;;;;12.48;11.00;;;19.40;99.90;;;;;;5030881;28;20030;-69
2022/06/27 07:53:30;;;;;;;10.77;9.77;;;19.30;99.90;;;;;;5031430;28;20037;-68
2022/06/27 07:55:58;;;;;;;11.52;10.32;;;19.30;99.90;;;;;;5030668;28;20049;-68
2022/06/27 07:58:33;;;;;;;14.95;10.68;;;19.50;99.90;;;;;;5031420;28;20084;-69
2022/06/27 08:01:10;;;;;;;12.98;10.88;;;19.70;99.90;;;;;;5030564;28;20029;-69
2022/06/27 08:03:39;;;;;;;10.63;9.63;;;19.70;99.90;;;;;;5029380;28;20022;-68
2022/06/27 08:06:25;;;;;;;12.27;11.00;;;19.90;99.90;;;;;;5028749;28;20049;-69
2022/06/27 08:08:54;;;;;;;12.07;10.98;;;20.00;99.90;;;;;;5025620;28;20121;-69
2022/06/27 08:11:26;;;;;;;13.00;10.73;;;20.10;99.90;;;;;;5028762;28;20033;-69
2022/06/27 08:13:55;;;;;;;12.07;10.52;;;20.30;99.90;;;;;;5029265;28;20026;-69
2022/06/27 08:16:22;;;;;;;10.90;9.85;;;20.40;99.90;;;;;;5029831;28;20485;-69
2022/06/27 08:18:50;;;;;;;13.10;10.25;;;20.50;99.90;;;;;;5029031;28;20383;-69
2022/06/27 08:21:19;;;;;;;10.30;9.40;;;20.60;99.90;;;;;;5030556;28;20060;-69
2022/06/27 08:23:46;;;;;;;10.77;9.77;;;20.80;99.90;;;;;;5030437;28;20029;-68
2022/06/27 08:26:12;;;;;;;14.48;11.82;;;20.90;99.90;;;;;;5030266;28;20017;-69
2022/06/27 08:28:39;;;;;;;11.98;10.20;;;21.00;99.90;;;;;;5029688;28;20514;-69
2022/06/27 08:31:10;;;;;;;11.70;10.57;;;21.00;99.90;;;;;;5029653;28;20018;-69
2022/06/27 08:33:37;;;;;;;11.75;10.55;;;21.00;99.90;;;;;;5030458;28;20163;-69
2022/06/27 08:36:04;;;;;;;9.57;8.57;;;20.90;99.90;;;;;;5028591;28;20017;-69
2022/06/27 08:38:32;;;;;;;12.73;9.25;;;21.00;99.90;;;;;;5028841;28;20550;-69
2022/06/27 08:40:57;;;;;;;10.20;9.23;;;21.10;99.90;;;;;;5029728;28;20014;-69
2022/06/27 08:43:24;;;;;;;9.43;7.18;;;22.70;99.90;;;;;;5030016;28;20036;-69
2022/06/27 08:45:52;;;;;;;7.90;7.20;;;21.10;99.90;;;;;;5030178;28;20068;-69
2022/06/27 08:48:19;;;;;;;11.55;9.85;;;21.50;99.90;;;;;;5029514;28;20032;-69
2022/06/27 08:50:46;;;;;;;10.95;9.82;;;21.60;99.90;;;;;;5030187;28;20053;-69
2022/06/27 08:53:13;;;;;;;9.77;8.80;;;22.80;99.90;;;;;;5029748;28;20021;-69
2022/06/27 08:55:46;;;;;;;9.18;8.27;;;21.70;99.90;;;;;;5030054;28;20028;-69
2022/06/27 08:58:13;;;;;;;11.18;9.30;;;21.90;99.90;;;;;;5029249;28;20033;-68
2022/06/27 09:00:44;;;;;;;10.88;9.25;;;21.80;99.90;;;;;;5030183;28;20454;-69
2022/06/27 09:03:10;;;;;;;8.70;7.82;;;21.80;99.90;;;;;;5029717;28;20104;-69
2022/06/27 09:05:36;;;;;;;7.32;6.72;;;21.80;99.90;;;;;;5029947;28;20037;-69
2022/06/27 09:08:07;;;;;;;8.70;7.75;;;21.90;99.90;;;;;;5029543;28;20468;-69
2022/06/27 09:10:37;;;;;;;9.70;6.38;;;21.90;99.40;;;;;;5029978;28;20025;-68
2022/06/27 09:13:05;;;;;;;9.45;7.85;;;22.00;99.90;;;;;;5029214;28;20108;-69
2022/06/27 09:15:49;;;;;;;9.15;6.85;;;22.80;99.50;;;;;;5029968;28;20033;-69
2022/06/27 09:18:18;;;;;;;7.18;6.47;;;21.90;98.60;;;;;;5029646;28;20033;-69
2022/06/27 09:20:57;;;;;;;8.88;7.15;;;21.90;99.20;;;;;;5029624;28;20033;-69
2022/06/27 09:23:39;;;;;;;11.95;7.25;;;21.90;99.20;;;;;;5029811;28;20017;-69
2022/06/27 09:26:25;;;;;;;6.72;6.07;;;22.10;98.40;;;;;;5029799;28;20018;-69
2022/06/27 09:29:00;;;;;;;7.68;6.85;;;21.90;98.40;;;;;;5029220;28;20014;-69
2022/06/27 09:31:30;;;;;;;8.70;7.80;;;22.10;97.80;;;;;;5029883;28;20072;-69
2022/06/27 09:34:12;;;;;;;11.77;8.13;;;22.40;97.50;;;;;;5029645;28;20025;-69
2022/06/27 09:36:40;;;;;;;8.65;7.43;;;22.60;97.70;;;;;;5029848;28;20426;-69
2022/06/27 09:39:16;;;;;;;7.32;6.60;;;22.60;98.20;;;;;;5031116;28;20034;-69
2022/06/27 09:41:45;;;;;;;7.55;6.88;;;22.50;98.10;;;;;;5033058;28;20024;-69
2022/06/27 09:44:11;;;;;;;8.10;7.30;;;22.50;98.00;;;;;;5033502;28;20410;-69
2022/06/27 09:46:42;;;;;;;7.40;6.68;;;22.50;97.60;;;;;;5033516;28;20108;-69
2022/06/27 09:49:12;;;;;;;7.10;6.40;;;22.50;97.70;;;;;;5033390;28;20112;-69
2022/06/27 09:51:39;;;;;;;7.30;5.97;;;22.40;97.50;;;;;;5033500;28;20540;-69
2022/06/27 09:54:09;;;;;;;5.68;4.70;;;22.30;97.50;;;;;;5033337;28;20351;-69
2022/06/27 09:56:41;;;;;;;5.65;4.35;;;22.30;97.40;;;;;;5032933;28;20053;-69
2022/06/27 09:59:10;;;;;;;4.82;3.78;;;23.50;97.80;;;;;;5033196;28;20044;-69
2022/06/27 10:01:36;;;;;;;5.13;4.28;;;22.20;97.20;;;;;;5033316;28;20057;-69
2022/06/27 10:04:03;;;;;;;6.63;4.35;;;22.20;96.80;;;;;;5033057;28;20486;-68
2022/06/27 10:06:30;;;;;;;7.38;4.75;;;22.00;97.20;;;;;;5033280;28;20045;-69
2022/06/27 10:08:58;;;;;;;5.38;4.85;;;22.00;97.30;;;;;;5033131;28;20021;-69
2022/06/27 10:11:24;;;;;;;8.95;4.88;;;21.80;97.10;;;;;;5033008;28;20028;-69
2022/06/27 10:14:15;;;;;;;8.00;5.00;;;22.00;97.00;;;;;;5032957;28;20022;-69
2022/06/27 10:16:58;;;;;;;7.00;5.40;;;22.10;96.40;;;;;;5031456;28;20022;-69
2022/06/27 10:19:28;;;;;;;6.63;5.80;;;22.40;96.90;;;;;;5033012;28;20111;-69
2022/06/27 10:21:56;;;;;;;5.57;4.10;;;22.40;96.50;;;;;;5032908;28;20398;-69
2022/06/27 10:24:21;;;;;;;8.75;6.47;;;22.40;96.20;;;;;;5032624;28;20049;-70
2022/06/27 10:26:53;;;;;;;8.30;4.35;;;22.40;96.10;;;;;;5032445;28;20456;-69
2022/06/27 10:29:28;;;;;;;5.90;5.05;;;22.40;96.50;;;;;;5032977;28;20029;-69
2022/06/27 10:31:54;;;;;;;5.72;4.03;;;22.00;96.10;;;;;;5032759;28;20057;-69
2022/06/27 10:34:38;;;;;;;4.82;4.28;;;22.00;95.90;;;;;;5032595;28;20134;-69
2022/06/27 10:37:19;;;;;;;4.72;3.60;;;22.20;96.60;;;;;;5032815;28;20025;-69
2022/06/27 10:39:45;;;;;;;3.55;2.70;;;22.30;96.00;;;;;;5031857;28;20049;-69
2022/06/27 10:42:49;;;;;;;7.00;3.58;;;22.60;95.20;;;;;;5032461;28;20041;-69
2022/06/27 10:45:20;;;;;;;3.83;2.63;;;22.70;94.20;;;;;;5032570;28;20101;-69
2022/06/27 10:47:50;;;;;;;7.78;4.55;;;22.90;94.30;;;;;;5032246;28;20479;-69
2022/06/27 10:50:18;;;;;;;5.70;5.03;;;22.90;94.10;;;;;;5031898;28;20024;-69
2022/06/27 10:52:44;;;;;;;6.90;3.85;;;23.00;93.60;;;;;;5032391;28;20030;-69
2022/06/27 10:55:29;;;;;;;4.53;3.45;;;22.90;93.30;;;;;;5031785;28;20517;-69
2022/06/27 10:57:56;;;;;;;7.18;4.78;;;23.40;93.60;;;;;;5032480;28;20064;-70
2022/06/27 11:00:37;;;;;;;4.82;3.92;;;23.10;92.90;;;;;;5030872;28;20025;-70
2022/06/27 11:03:03;;;;;;;5.28;3.75;;;23.30;92.20;;;;;;5031687;28;20075;-70
2022/06/27 11:05:32;;;;;;;5.13;2.35;;;23.20;92.80;;;;;;5032276;28;20483;-70
2022/06/27 11:07:59;;;;;;;6.20;2.47;;;23.30;92.70;;;;;;5031921;28;20077;-70
2022/06/27 11:10:25;;;;;;;5.88;3.15;;;23.30;92.20;;;;;;5031785;28;20014;-69
2022/06/27 11:12:50;;;;;;;4.07;3.13;;;23.60;92.10;;;;;;5031990;28;20025;-70
2022/06/27 11:15:16;;;;;;;6.70;3.20;;;23.50;92.00;;;;;;5031799;28;20034;-70
2022/06/27 11:17:44;;;;;;;5.25;3.25;;;24.10;92.00;;;;;;5031572;28;20455;-70
2022/06/27 11:20:17;;;;;;;4.38;3.70;;;23.90;92.20;;;;;;5031732;28;20029;-70
2022/06/27 11:22:52;;;;;;;6.03;3.35;;;23.90;91.30;;;;;;5031518;28;20053;-70
2022/06/27 11:25:20;;;;;;;5.35;3.10;;;24.10;91.40;;;;;;5031189;28;20108;-70
2022/06/27 11:27:56;;;;;;;10.18;2.88;;;23.80;92.20;;;;;;5030126;28;20548;-70
2022/06/27 11:33:21;;;;;;;5.75;3.03;;;23.90;91.20;;;;;;5020043;28;20778;-70
2022/06/27 11:35:48;;;;;;;7.55;3.65;;;24.90;92.00;;;;;;5031349;28;20030;-70
2022/06/27 11:38:29;;;;;;;5.38;4.00;;;23.50;91.80;;;;;;5030769;28;20037;-70
2022/06/27 11:41:03;;;;;;;7.55;4.53;;;23.50;91.90;;;;;;5031387;28;20037;-70
2022/06/27 11:43:52;;;;;;;5.43;4.03;;;23.20;92.20;;;;;;5031586;28;20424;-70
2022/06/27 11:46:22;;;;;;;6.50;4.03;;;23.30;92.50;;;;;;5031228;28;20394;-70
2022/06/27 11:48:56;;;;;;;5.78;4.07;;;23.20;93.20;;;;;;5029986;28;20125;-70
2022/06/27 11:51:33;;;;;;;5.32;4.45;;;23.10;93.40;;;;;;5031367;28;20390;-71
2022/06/27 11:54:11;;;;;;;5.07;4.10;;;23.10;93.10;;;;;;5030696;28;20363;-71
2022/06/27 11:56:42;;;;;;;5.20;3.97;;;23.10;92.20;;;;;;5031358;28;20054;-71
2022/06/27 11:59:13;;;;;;;5.22;4.03;;;23.10;93.00;;;;;;5029567;28;20372;-70
2022/06/27 12:01:58;;;;;;;8.05;4.28;;;23.90;92.90;;;;;;5017838;28;20029;-70
2022/06/27 12:04:32;;;;;;;5.45;3.92;;;23.40;92.30;;;;;;5030934;28;20548;-70
2022/06/27 12:07:04;;;;;;;6.38;3.97;;;23.40;93.30;;;;;;5030111;28;20130;-70
2022/06/27 12:09:29;;;;;;;4.90;4.20;;;23.40;93.20;;;;;;5031187;28;20022;-70
2022/06/27 12:12:06;;;;;;;5.30;3.78;;;24.80;93.20;;;;;;5031020;28;20108;-70
2022/06/27 12:14:44;;;;;;;7.47;4.20;;;23.40;93.60;;;;;;5031221;28;20044;-70
2022/06/27 12:17:10;;;;;;;8.30;5.63;;;23.40;93.90;;;;;;5030692;28;20018;-70
2022/06/27 12:19:36;;;;;;;9.60;5.22;;;24.10;93.30;;;;;;5030636;28;20033;-70
2022/06/27 12:22:01;;;;;;;7.43;5.28;;;23.80;92.70;;;;;;5030024;28;20100;-70
2022/06/27 12:24:27;;;;;;;5.07;4.15;;;24.10;92.10;;;;;;5030745;28;20021;-70
2022/06/27 12:26:52;;;;;;;8.80;4.72;;;24.30;91.80;;;;;;5029379;28;20055;-69
2022/06/27 12:29:18;;;;;;;6.93;4.65;;;24.40;91.90;;;;;;5030374;28;20078;-69
2022/06/27 12:31:44;;;;;;;8.85;5.60;;;24.30;91.60;;;;;;5030504;28;20028;-70
2022/06/27 12:34:10;;;;;;;5.82;3.70;;;24.20;91.50;;;;;;5030099;28;20030;-70
2022/06/27 12:36:36;;;;;;;7.65;5.07;;;24.00;91.60;;;;;;5030107;28;20025;-69
2022/06/27 12:39:04;;;;;;;6.80;3.60;;;23.70;91.70;;;;;;5030073;28;20076;-69
2022/06/27 12:41:29;;;;;;;6.93;5.18;;;23.70;91.70;;;;;;5030475;28;20026;-69
2022/06/27 12:43:57;;;;;;;7.60;3.67;;;23.70;91.40;;;;;;5030268;28;20044;-69
2022/06/27 12:46:23;;;;;;;7.80;4.13;;;23.60;91.70;;;;;;5028671;28;20021;-70
2022/06/27 12:48:48;;;;;;;7.47;4.55;;;23.70;91.50;;;;;;5028860;28;20482;-69
2022/06/27 12:51:14;;;;;;;6.60;4.18;;;24.60;91.70;;;;;;5029556;28;20032;-69
2022/06/27 12:53:40;;;;;;;7.63;3.70;;;24.40;91.70;;;;;;5029025;28;20490;-70
2022/06/27 12:56:06;;;;;;;7.00;5.78;;;23.30;91.70;;;;;;5029881;28;20026;-70